Terminal Aerodrome Forecast
Issued by NWS

Home | Current Version | Previous Version | Text Only | Print | Product List | Glossary On
Versions: 1 2 3 4 5 6 7 8 9 10 11 12 13 14 15 16
000
FTUS43 KFGF 180900 AAB
TAFTVF
TAF AMD
KTVF 180951Z 1810/1906 09007KT 2SM BR OVC004
      TEMPO 1810/1813 1/2SM FG OVC002
     FM181600 15016KT P6SM SCT250
      AMD LTD TO CLD VIS AND WIND=

USA.gov is the U.S. government's official web portal to all federal, state and local government web resources and services.